createdAt,value
2023-05-02T00:02:08.698Z,13.61
2023-05-02T00:04:36.577Z,13.77
2023-05-02T00:07:04.001Z,13.71
2023-05-02T00:09:31.436Z,13.76
2023-05-02T00:11:59.657Z,13.42
2023-05-02T00:14:27.050Z,14.03
2023-05-02T00:16:54.447Z,13.89
2023-05-02T00:19:22.105Z,13.96
2023-05-02T00:21:49.492Z,14.03
2023-05-02T00:24:17.995Z,14.23
2023-05-02T00:26:46.244Z,14.24
2023-05-02T00:29:13.840Z,14.33
2023-05-02T00:31:41.720Z,13.57
2023-05-02T00:34:09.489Z,12.82
2023-05-02T00:36:37.343Z,13.45
2023-05-02T00:39:05.274Z,13.44
2023-05-02T00:41:32.976Z,13.28
2023-05-02T00:44:00.804Z,13.70
2023-05-02T00:46:28.245Z,13.59
2023-05-02T00:48:55.936Z,13.87
2023-05-02T00:51:23.377Z,14.18
2023-05-02T00:53:51.068Z,14.11
2023-05-02T00:56:18.753Z,13.71
2023-05-02T00:58:47.178Z,14.12
2023-05-02T01:01:24.593Z,14.11
2023-05-02T01:04:18.856Z,13.87
2023-05-02T01:06:58.433Z,12.66
2023-05-02T01:09:35.416Z,13.11
2023-05-02T01:12:11.081Z,13.47
2023-05-02T01:14:43.210Z,13.76
2023-05-02T01:17:13.099Z,13.46
2023-05-02T01:19:43.972Z,12.73
2023-05-02T01:22:11.880Z,13.77
2023-05-02T01:24:46.928Z,13.02
2023-05-02T01:27:21.380Z,13.98
2023-05-02T01:29:50.580Z,13.52
2023-05-02T01:32:22.893Z,13.68
2023-05-02T01:34:51.701Z,13.69
2023-05-02T01:37:20.371Z,13.80
2023-05-02T01:39:49.603Z,14.42
2023-05-02T01:42:18.252Z,13.54
2023-05-02T01:44:46.582Z,13.60
2023-05-02T01:47:14.288Z,13.61
2023-05-02T01:49:43.309Z,13.81
2023-05-02T01:52:12.985Z,13.72
2023-05-02T01:54:41.382Z,13.69
2023-05-02T01:57:09.327Z,13.87
2023-05-02T01:59:37.640Z,13.68
2023-05-02T02:02:05.537Z,13.82
2023-05-02T02:04:35.547Z,13.87
2023-05-02T02:07:07.499Z,13.98
2023-05-02T02:09:35.478Z,13.92
2023-05-02T02:12:09.835Z,14.02
2023-05-02T02:14:39.550Z,13.75
2023-05-02T02:17:13.738Z,13.93
2023-05-02T02:19:41.437Z,13.65
2023-05-02T02:22:09.895Z,13.49
2023-05-02T02:24:37.919Z,13.47
2023-05-02T02:27:05.345Z,13.53
2023-05-02T02:29:34.831Z,13.48
2023-05-02T02:32:02.229Z,13.37
2023-05-02T02:34:29.650Z,13.64
2023-05-02T02:37:03.499Z,14.32
2023-05-02T02:39:43.986Z,13.79
2023-05-02T02:42:22.196Z,13.78
2023-05-02T02:44:58.619Z,13.15
2023-05-02T02:47:42.846Z,13.43
2023-05-02T02:50:23.569Z,13.36
2023-05-02T02:53:02.349Z,13.27
2023-05-02T02:55:53.833Z,13.37
2023-05-02T02:58:34.255Z,13.36
2023-05-02T03:01:05.406Z,13.85
2023-05-02T03:03:33.941Z,13.07
2023-05-02T03:06:01.466Z,13.29
2023-05-02T03:08:41.947Z,13.26
2023-05-02T03:11:10.374Z,12.79
2023-05-02T03:13:37.937Z,13.34
2023-05-02T03:16:20.582Z,13.76
2023-05-02T03:18:49.280Z,13.26
2023-05-02T03:21:17.107Z,13.64
2023-05-02T03:23:44.583Z,13.14
2023-05-02T03:26:12.371Z,12.83
2023-05-02T03:28:40.724Z,12.86
2023-05-02T03:31:09.040Z,13.10
2023-05-02T03:33:36.917Z,13.03
2023-05-02T03:36:04.652Z,13.52
2023-05-02T03:38:32.052Z,13.26
2023-05-02T03:41:00.833Z,13.16
2023-05-02T03:43:28.244Z,12.92
2023-05-02T03:45:56.201Z,12.82
2023-05-02T03:48:23.974Z,12.87
2023-05-02T03:50:51.381Z,12.88
2023-05-02T03:53:19.052Z,12.74
2023-05-02T03:55:47.546Z,12.94
2023-05-02T03:58:16.881Z,12.83
2023-05-02T04:00:45.037Z,13.06
2023-05-02T04:03:13.506Z,13.36
2023-05-02T04:05:41.328Z,13.43
2023-05-02T04:08:10.881Z,13.44
2023-05-02T04:10:38.617Z,13.57
2023-05-02T04:13:07.105Z,13.47
2023-05-02T04:15:34.972Z,13.33
2023-05-02T04:18:02.775Z,13.54
2023-05-02T04:20:30.884Z,13.42
2023-05-02T04:23:08.168Z,13.72
2023-05-02T04:25:36.363Z,14.02
2023-05-02T04:28:05.676Z,14.18
2023-05-02T04:30:33.362Z,14.48
2023-05-02T04:33:02.125Z,14.01
2023-05-02T04:35:31.108Z,14.30
2023-05-02T04:37:58.671Z,13.87
2023-05-02T04:40:26.974Z,13.47
2023-05-02T04:42:54.968Z,13.98
2023-05-02T04:45:22.917Z,13.92
2023-05-02T04:47:51.946Z,13.85
2023-05-02T04:50:19.475Z,14.01
2023-05-02T04:52:47.366Z,14.25
2023-05-02T04:55:15.290Z,14.09
2023-05-02T04:57:42.957Z,14.03
2023-05-02T05:00:11.974Z,14.32
2023-05-02T05:02:40.187Z,14.83
2023-05-02T05:05:09.163Z,15.14
2023-05-02T05:07:36.658Z,14.97
2023-05-02T05:10:04.930Z,15.16
2023-05-02T05:12:32.880Z,15.32
2023-05-02T05:15:00.704Z,15.52
2023-05-02T05:17:30.154Z,15.56
2023-05-02T05:19:59.229Z,15.85
2023-05-02T05:22:27.335Z,16.02
2023-05-02T05:24:55.719Z,16.03
2023-05-02T05:27:23.991Z,16.21
2023-05-02T05:29:51.523Z,16.46
2023-05-02T05:32:19.830Z,16.39
2023-05-02T05:34:47.307Z,16.70
2023-05-02T05:37:14.758Z,16.63
2023-05-02T05:39:42.550Z,17.20
2023-05-02T05:42:10.512Z,16.49
2023-05-02T05:44:39.585Z,17.40
2023-05-02T05:47:08.076Z,17.07
2023-05-02T05:49:39.027Z,17.40
2023-05-02T05:52:08.444Z,17.70
2023-05-02T05:54:36.324Z,17.13
2023-05-02T05:57:03.820Z,17.12
2023-05-02T05:59:31.540Z,17.17
2023-05-02T06:01:59.578Z,17.16
2023-05-02T06:04:27.335Z,17.70
2023-05-02T06:06:55.373Z,18.06
2023-05-02T06:09:23.031Z,17.54
2023-05-02T06:11:50.810Z,17.29
2023-05-02T06:14:18.749Z,17.81
2023-05-02T06:16:47.627Z,18.23
2023-05-02T06:19:15.508Z,18.32
2023-05-02T06:21:43.014Z,17.88
2023-05-02T06:24:10.587Z,18.23
2023-05-02T06:26:38.343Z,18.25
2023-05-02T06:29:05.846Z,18.90
2023-05-02T06:31:33.329Z,18.60
2023-05-02T06:34:01.015Z,18.14
2023-05-02T06:36:28.481Z,18.47
2023-05-02T06:38:56.060Z,18.42
2023-05-02T06:41:23.766Z,18.27
2023-05-02T06:43:51.278Z,18.84
2023-05-02T06:46:20.386Z,19.31
2023-05-02T06:48:48.328Z,19.31
2023-05-02T06:51:15.712Z,19.74
2023-05-02T06:53:43.119Z,20.11
2023-05-02T06:56:10.833Z,20.22
2023-05-02T06:58:38.263Z,20.56
2023-05-02T07:01:05.759Z,21.77
2023-05-02T07:03:33.750Z,22.67
2023-05-02T07:06:01.527Z,21.21
2023-05-02T07:08:29.028Z,22.32
2023-05-02T07:10:56.737Z,23.03
2023-05-02T07:13:24.153Z,23.80
2023-05-02T07:15:51.586Z,24.91
2023-05-02T07:18:19.791Z,25.10
2023-05-02T07:20:47.353Z,25.57
2023-05-02T07:23:14.805Z,26.29
2023-05-02T07:25:42.571Z,26.57
2023-05-02T07:28:09.990Z,26.97
2023-05-02T07:30:37.566Z,26.25
2023-05-02T07:33:05.471Z,27.29
2023-05-02T07:35:33.147Z,26.81
2023-05-02T07:38:00.788Z,28.40
2023-05-02T07:40:28.774Z,27.96
2023-05-02T07:42:56.167Z,27.92
2023-05-02T07:45:23.575Z,28.61
2023-05-02T07:47:51.659Z,28.25
2023-05-02T07:50:19.670Z,28.86
2023-05-02T07:52:47.389Z,28.58
2023-05-02T07:55:15.247Z,28.65
2023-05-02T07:57:42.808Z,27.55
2023-05-02T08:00:11.655Z,28.07
2023-05-02T08:02:43.278Z,28.81
2023-05-02T08:05:11.111Z,28.98
2023-05-02T08:07:38.574Z,28.81
2023-05-02T08:10:07.122Z,29.12
2023-05-02T08:12:40.126Z,28.88
2023-05-02T08:15:08.781Z,28.68
2023-05-02T08:17:36.709Z,28.77
2023-05-02T08:20:04.520Z,27.38
2023-05-02T08:22:31.892Z,26.97
2023-05-02T08:25:02.067Z,28.13
2023-05-02T08:27:29.358Z,28.50
2023-05-02T08:29:58.484Z,28.35
2023-05-02T08:32:27.066Z,27.19
2023-05-02T08:34:57.741Z,28.20
2023-05-02T08:37:24.991Z,27.69
2023-05-02T08:39:52.504Z,27.43
2023-05-02T08:42:20.904Z,27.58
2023-05-02T08:44:51.284Z,27.94
2023-05-02T08:47:19.154Z,27.63
2023-05-02T08:49:47.157Z,28.07
2023-05-02T08:52:14.363Z,28.06
2023-05-02T08:54:41.932Z,26.71
2023-05-02T08:57:09.128Z,27.03
2023-05-02T08:59:36.538Z,26.71
2023-05-02T09:02:18.294Z,26.93
2023-05-02T09:04:45.903Z,27.08
2023-05-02T09:07:13.456Z,26.62
2023-05-02T09:09:40.680Z,25.65
2023-05-02T09:12:08.126Z,25.66
2023-05-02T09:14:35.873Z,26.32
2023-05-02T09:17:03.366Z,26.60
2023-05-02T09:19:30.809Z,26.77
2023-05-02T09:22:01.633Z,26.36
2023-05-02T09:24:29.770Z,26.00
2023-05-02T09:26:58.016Z,26.63
2023-05-02T09:29:26.868Z,26.46
2023-05-02T09:31:56.235Z,26.95
2023-05-02T09:34:23.964Z,26.44
2023-05-02T09:36:53.984Z,26.07
2023-05-02T09:39:26.418Z,26.38
2023-05-02T09:41:54.698Z,26.45
2023-05-02T09:44:23.903Z,26.69
2023-05-02T09:46:51.920Z,27.41
2023-05-02T09:49:19.585Z,26.81
2023-05-02T09:51:47.417Z,26.97
2023-05-02T09:54:14.944Z,27.01
2023-05-02T09:56:57.781Z,26.80
2023-05-02T09:59:25.567Z,27.28
2023-05-02T10:01:57.099Z,27.37
2023-05-02T10:04:24.616Z,27.01
2023-05-02T10:06:52.955Z,25.62
2023-05-02T10:09:22.659Z,25.07
2023-05-02T10:11:52.121Z,24.93
2023-05-02T10:14:19.902Z,25.17
2023-05-02T10:16:50.284Z,26.59
2023-05-02T10:19:20.986Z,26.78
2023-05-02T10:21:48.132Z,27.23
2023-05-02T10:24:15.495Z,26.58
2023-05-02T10:26:43.021Z,26.04
2023-05-02T10:29:10.359Z,26.35
2023-05-02T10:31:39.677Z,27.16
2023-05-02T10:34:10.624Z,27.34
2023-05-02T10:36:38.199Z,27.48
2023-05-02T10:39:05.368Z,27.79
2023-05-02T10:41:33.625Z,27.92
2023-05-02T10:44:02.253Z,27.87
2023-05-02T10:46:30.143Z,27.71
2023-05-02T10:49:00.783Z,28.07
2023-05-02T10:51:32.106Z,28.03
2023-05-02T10:54:18.182Z,27.21
2023-05-02T10:57:04.058Z,27.64
2023-05-02T10:59:41.656Z,27.55
2023-05-02T11:02:32.714Z,27.75
2023-05-02T11:05:06.926Z,27.89
2023-05-02T11:07:35.403Z,26.73
2023-05-02T11:10:20.527Z,27.54
2023-05-02T11:12:49.210Z,27.76
2023-05-02T11:15:28.851Z,27.92
2023-05-02T11:17:59.145Z,28.31
2023-05-02T11:20:27.084Z,27.95
2023-05-02T11:22:54.995Z,27.53
2023-05-02T11:25:31.870Z,26.89
2023-05-02T11:27:59.437Z,26.93
2023-05-02T11:30:43.842Z,27.39
2023-05-02T11:33:11.978Z,27.82
2023-05-02T11:35:41.651Z,28.44
2023-05-02T11:38:10.466Z,28.36
2023-05-02T11:40:37.964Z,28.61
2023-05-02T11:43:15.118Z,28.10
2023-05-02T11:45:42.935Z,28.42
2023-05-02T11:48:11.184Z,28.03
2023-05-02T11:50:48.606Z,28.26
2023-05-02T11:53:18.267Z,27.70
2023-05-02T11:55:49.445Z,28.19
2023-05-02T11:58:17.668Z,28.06
2023-05-02T12:00:48.251Z,27.97
2023-05-02T12:03:25.034Z,28.15
2023-05-02T12:05:54.022Z,28.36
2023-05-02T12:08:22.712Z,28.58
2023-05-02T12:10:51.397Z,29.03
2023-05-02T12:13:18.736Z,28.49
2023-05-02T12:15:46.257Z,29.17
2023-05-02T12:18:13.882Z,29.41
2023-05-02T12:20:41.448Z,27.81
2023-05-02T12:23:10.072Z,27.05
2023-05-02T12:25:38.741Z,27.71
2023-05-02T12:28:06.145Z,26.84
2023-05-02T12:30:33.784Z,26.43
2023-05-02T12:33:04.242Z,26.26
2023-05-02T12:35:31.772Z,26.76
2023-05-02T12:38:09.443Z,27.67
2023-05-02T12:40:36.960Z,28.10
2023-05-02T12:43:07.145Z,26.66
2023-05-02T12:45:34.508Z,26.50
2023-05-02T12:48:02.375Z,26.85
2023-05-02T12:50:37.166Z,26.67
2023-05-02T12:53:04.868Z,26.48
2023-05-02T12:55:32.461Z,25.88
2023-05-02T12:58:00.309Z,25.78
2023-05-02T13:00:27.646Z,26.03
2023-05-02T13:02:55.215Z,26.64
2023-05-02T13:05:22.538Z,26.20
2023-05-02T13:07:49.751Z,26.47
2023-05-02T13:10:20.157Z,26.65
2023-05-02T13:12:48.172Z,27.03
2023-05-02T13:15:15.668Z,26.13
2023-05-02T13:17:43.328Z,25.23
2023-05-02T13:20:10.936Z,25.04
2023-05-02T13:22:38.398Z,24.82
2023-05-02T13:25:06.479Z,24.37
2023-05-02T13:27:36.362Z,25.47
2023-05-02T13:30:07.660Z,25.62
2023-05-02T13:32:36.510Z,26.04
2023-05-02T13:35:03.879Z,24.49
2023-05-02T13:37:31.314Z,25.00
2023-05-02T13:39:59.045Z,25.67
2023-05-02T13:42:26.472Z,26.03
2023-05-02T13:44:53.757Z,26.18
2023-05-02T13:47:21.664Z,25.63
2023-05-02T13:49:48.828Z,25.84
2023-05-02T13:52:16.201Z,24.91
2023-05-02T13:54:43.854Z,24.57
2023-05-02T13:57:11.915Z,25.05
2023-05-02T13:59:39.187Z,25.03
2023-05-02T14:02:06.946Z,25.56
2023-05-02T14:04:34.629Z,26.25
2023-05-02T14:07:02.088Z,25.82
2023-05-02T14:09:29.792Z,25.78
2023-05-02T14:11:58.774Z,25.65
2023-05-02T14:14:26.062Z,25.98
2023-05-02T14:16:53.408Z,26.03
2023-05-02T14:19:20.879Z,25.25
2023-05-02T14:21:48.088Z,25.49
2023-05-02T14:24:16.492Z,25.20
2023-05-02T14:26:44.021Z,24.07
2023-05-02T14:29:11.388Z,24.39
2023-05-02T14:31:38.675Z,24.51
2023-05-02T14:34:08.728Z,24.49
2023-05-02T14:36:36.211Z,24.46
2023-05-02T14:39:03.701Z,24.67
2023-05-02T14:41:31.679Z,24.52
2023-05-02T14:43:58.823Z,24.92
2023-05-02T14:46:26.162Z,25.12
2023-05-02T14:48:53.775Z,24.88
2023-05-02T14:51:21.033Z,24.14
2023-05-02T14:53:49.142Z,23.99
2023-05-02T14:56:18.684Z,23.53
2023-05-02T14:58:46.392Z,23.83
2023-05-02T15:01:19.930Z,24.41
2023-05-02T15:04:04.546Z,24.00
2023-05-02T15:06:34.197Z,23.79
2023-05-02T15:09:02.032Z,23.80
2023-05-02T15:11:29.243Z,24.42
2023-05-02T15:13:58.460Z,24.69
2023-05-02T15:16:27.493Z,24.92
2023-05-02T15:18:55.188Z,24.98
2023-05-02T15:21:22.370Z,25.16
2023-05-02T15:24:08.507Z,24.45
2023-05-02T15:26:36.285Z,24.80
2023-05-02T15:29:03.747Z,24.23
2023-05-02T15:31:31.438Z,25.14
2023-05-02T15:33:58.684Z,25.23
2023-05-02T15:36:26.907Z,25.09
2023-05-02T15:38:54.097Z,25.19
2023-05-02T15:41:21.372Z,24.93
2023-05-02T15:43:48.824Z,24.42
2023-05-02T15:46:16.190Z,23.71
2023-05-02T15:48:43.540Z,22.64
2023-05-02T15:51:11.217Z,22.05
2023-05-02T15:53:42.324Z,21.61
2023-05-02T15:56:09.792Z,21.50
2023-05-02T15:58:37.457Z,21.82
2023-05-02T16:01:04.776Z,22.13
2023-05-02T16:03:34.155Z,21.59
2023-05-02T16:06:01.705Z,21.82
2023-05-02T16:08:28.938Z,21.77
2023-05-02T16:10:57.876Z,22.00
2023-05-02T16:13:25.052Z,22.04
2023-05-02T16:15:52.784Z,21.98
2023-05-02T16:18:20.361Z,21.72
2023-05-02T16:20:50.094Z,21.53
2023-05-02T16:23:17.930Z,21.40
2023-05-02T16:25:45.430Z,21.28
2023-05-02T16:28:13.176Z,20.98
2023-05-02T16:30:40.483Z,20.98
2023-05-02T16:33:07.912Z,21.19
2023-05-02T16:35:35.070Z,21.18
2023-05-02T16:38:02.422Z,21.11
2023-05-02T16:40:29.836Z,20.96
2023-05-02T16:42:56.974Z,21.23
2023-05-02T16:45:24.354Z,21.40
2023-05-02T16:47:51.917Z,21.31
2023-05-02T16:50:19.182Z,21.24
2023-05-02T16:52:46.407Z,20.96
2023-05-02T16:55:14.059Z,20.87
2023-05-02T16:57:41.351Z,20.61
2023-05-02T17:00:10.500Z,20.80
2023-05-02T17:02:38.164Z,20.64
2023-05-02T17:05:05.610Z,20.70
2023-05-02T17:07:32.817Z,20.60
2023-05-02T17:10:00.500Z,20.58
2023-05-02T17:12:28.154Z,20.72
2023-05-02T17:14:55.367Z,20.54
2023-05-02T17:17:23.604Z,21.35
2023-05-02T17:19:51.463Z,21.94
2023-05-02T17:22:19.136Z,21.60
2023-05-02T17:24:49.552Z,22.15
2023-05-02T17:27:17.140Z,21.31
2023-05-02T17:29:44.479Z,21.85
2023-05-02T17:32:14.744Z,21.77
2023-05-02T17:34:43.128Z,21.32
2023-05-02T17:37:10.552Z,20.56
2023-05-02T17:39:37.991Z,19.82
2023-05-02T17:42:05.339Z,19.10
2023-05-02T17:44:35.920Z,19.40
2023-05-02T17:47:03.825Z,19.85
2023-05-02T17:49:31.633Z,19.59
2023-05-02T17:51:59.233Z,19.23
2023-05-02T17:54:26.791Z,18.85
2023-05-02T17:56:55.486Z,18.51
2023-05-02T17:59:23.110Z,18.66
2023-05-02T18:01:50.846Z,19.38
2023-05-02T18:04:19.239Z,19.64
2023-05-02T18:06:46.972Z,18.98
2023-05-02T18:09:14.839Z,18.73
2023-05-02T18:11:42.994Z,18.45
2023-05-02T18:14:11.322Z,18.13
2023-05-02T18:16:39.410Z,18.91
2023-05-02T18:19:10.595Z,18.11
2023-05-02T18:21:38.163Z,17.91
2023-05-02T18:24:06.353Z,18.30
2023-05-02T18:26:34.480Z,18.52
2023-05-02T18:29:02.606Z,18.99
2023-05-02T18:31:31.366Z,18.77
2023-05-02T18:33:59.649Z,18.36
2023-05-02T18:36:29.760Z,18.10
2023-05-02T18:38:57.726Z,17.98
2023-05-02T18:41:26.856Z,17.96
2023-05-02T18:43:56.384Z,17.91
2023-05-02T18:46:25.585Z,17.80
2023-05-02T18:48:53.893Z,18.08
2023-05-02T18:51:21.803Z,17.94
2023-05-02T18:53:49.181Z,17.79
2023-05-02T18:56:17.577Z,17.77
2023-05-02T18:58:46.518Z,17.59
2023-05-02T19:01:15.363Z,17.32
2023-05-02T19:03:43.931Z,17.19
2023-05-02T19:06:12.045Z,17.10
2023-05-02T19:08:40.638Z,16.66
2023-05-02T19:11:09.405Z,17.01
2023-05-02T19:13:37.500Z,16.69
2023-05-02T19:16:05.720Z,16.75
2023-05-02T19:18:35.471Z,17.43
2023-05-02T19:21:12.918Z,17.25
2023-05-02T19:23:42.338Z,16.97
2023-05-02T19:26:10.618Z,16.69
2023-05-02T19:28:38.287Z,16.67
2023-05-02T19:31:10.476Z,16.37
2023-05-02T19:33:38.596Z,16.36
2023-05-02T19:36:25.453Z,16.60
2023-05-02T19:38:54.474Z,16.57
2023-05-02T19:41:25.508Z,16.87
2023-05-02T19:43:53.059Z,16.69
2023-05-02T19:46:21.107Z,17.01
2023-05-02T19:48:49.057Z,16.73
2023-05-02T19:51:16.259Z,16.64
2023-05-02T19:53:44.528Z,16.67
2023-05-02T19:56:12.827Z,16.61
2023-05-02T19:58:41.225Z,16.82
2023-05-02T20:01:08.740Z,16.77
2023-05-02T20:03:37.331Z,16.71
2023-05-02T20:06:06.722Z,16.95
2023-05-02T20:08:34.413Z,16.97
2023-05-02T20:11:02.300Z,15.71
2023-05-02T20:13:29.627Z,15.79
2023-05-02T20:15:56.824Z,15.27
2023-05-02T20:18:24.823Z,15.12
2023-05-02T20:20:53.561Z,15.24
2023-05-02T20:23:21.489Z,15.40
2023-05-02T20:25:50.082Z,15.61
2023-05-02T20:28:17.830Z,15.24
2023-05-02T20:30:45.999Z,15.70
2023-05-02T20:33:16.595Z,17.06
2023-05-02T20:35:45.455Z,17.10
2023-05-02T20:38:12.751Z,17.04
2023-05-02T20:40:40.900Z,16.95
2023-05-02T20:43:08.860Z,16.68
2023-05-02T20:45:36.111Z,16.11
2023-05-02T20:48:03.671Z,16.59
2023-05-02T20:50:31.373Z,16.15
2023-05-02T20:52:58.782Z,15.52
2023-05-02T20:55:26.356Z,16.10
2023-05-02T20:57:53.769Z,15.27
2023-05-02T21:00:23.783Z,15.07
2023-05-02T21:02:51.399Z,14.94
2023-05-02T21:05:18.603Z,15.43
2023-05-02T21:07:45.810Z,16.01
2023-05-02T21:10:13.541Z,15.23
2023-05-02T21:12:41.110Z,15.41
2023-05-02T21:15:08.483Z,15.99
2023-05-02T21:17:38.649Z,16.42
2023-05-02T21:20:06.532Z,16.03
2023-05-02T21:22:34.388Z,15.40
2023-05-02T21:25:01.987Z,15.32
2023-05-02T21:27:29.322Z,15.83
2023-05-02T21:29:56.537Z,15.97
2023-05-02T21:32:25.931Z,16.65
2023-05-02T21:34:53.326Z,15.22
2023-05-02T21:37:20.798Z,14.60
2023-05-02T21:39:48.251Z,14.95
2023-05-02T21:42:15.460Z,14.86
2023-05-02T21:44:42.617Z,16.10
2023-05-02T21:47:10.213Z,16.59
2023-05-02T21:49:37.423Z,15.84
2023-05-02T21:52:04.676Z,14.54
2023-05-02T21:54:32.306Z,14.52
2023-05-02T21:57:00.109Z,15.02
2023-05-02T21:59:27.323Z,15.43
2023-05-02T22:01:54.801Z,16.08
2023-05-02T22:04:22.305Z,15.71
2023-05-02T22:06:51.439Z,16.61
2023-05-02T22:09:19.213Z,16.40
2023-05-02T22:11:47.156Z,15.95
2023-05-02T22:14:14.357Z,16.52
2023-05-02T22:16:41.616Z,15.72
2023-05-02T22:19:10.904Z,15.05
2023-05-02T22:21:38.418Z,14.91
2023-05-02T22:24:05.864Z,14.94
2023-05-02T22:26:33.396Z,16.18
2023-05-02T22:29:00.566Z,16.43
2023-05-02T22:31:27.839Z,16.82
2023-05-02T22:33:55.453Z,15.58
2023-05-02T22:36:22.624Z,15.99
2023-05-02T22:38:49.778Z,16.35
2023-05-02T22:41:17.309Z,16.13
2023-05-02T22:43:44.470Z,15.57
2023-05-02T22:46:11.646Z,15.57
2023-05-02T22:48:39.156Z,15.16
2023-05-02T22:51:06.457Z,15.16
2023-05-02T22:53:33.649Z,15.16
2023-05-02T22:56:01.091Z,15.13
2023-05-02T22:58:28.258Z,15.05
2023-05-02T23:00:55.454Z,15.54
2023-05-02T23:03:23.076Z,15.34
2023-05-02T23:05:50.313Z,15.25
2023-05-02T23:08:17.518Z,14.91
2023-05-02T23:10:45.049Z,15.12
2023-05-02T23:13:12.503Z,14.78
2023-05-02T23:15:40.153Z,14.98
2023-05-02T23:18:07.673Z,15.94
2023-05-02T23:20:34.867Z,16.48
2023-05-02T23:23:03.140Z,16.27
2023-05-02T23:25:30.756Z,14.81
2023-05-02T23:27:58.303Z,15.70
2023-05-02T23:30:25.816Z,16.39
2023-05-02T23:32:53.482Z,16.39
2023-05-02T23:35:20.651Z,16.28
2023-05-02T23:37:47.834Z,15.68
2023-05-02T23:40:15.471Z,14.87
2023-05-02T23:42:42.715Z,14.85
2023-05-02T23:45:10.160Z,15.62
2023-05-02T23:47:38.109Z,15.69
2023-05-02T23:50:05.700Z,14.98
2023-05-02T23:52:33.062Z,14.36
2023-05-02T23:55:00.508Z,14.38
2023-05-02T23:57:29.475Z,14.06
2023-05-02T23:59:57.735Z,14.27
